Time;durP1;ratioP1;P1;durP2;ratioP2;P2;SDS_P1;SDS_P2;PMS_P1;PMS_P2;Temp;Humidity;BMP_temperature;BMP_pressure;BME280_temperature;BME280_humidity;BME280_pressure;Samples;Min_cycle;Max_cycle;Signal;HPM_P1;HPM_P2
2023/07/14 00:01:46;;;;;;;4.80;2.88;;;16.90;99.90;;;;;;5075600;28;20560;-64
2023/07/14 00:04:22;;;;;;;3.92;2.33;;;16.90;99.90;;;;;;5076580;28;20505;-63
2023/07/14 00:06:49;;;;;;;4.20;2.47;;;16.90;99.90;;;;;;5077933;28;20059;-64
2023/07/14 00:09:25;;;;;;;2.25;2.05;;;16.90;99.90;;;;;;5076416;28;20125;-64
2023/07/14 00:11:53;;;;;;;2.25;1.75;;;16.90;99.90;;;;;;5074681;28;20041;-64
2023/07/14 00:14:20;;;;;;;5.00;2.40;;;16.90;99.90;;;;;;5076600;28;20071;-63
2023/07/14 00:16:47;;;;;;;4.43;2.38;;;16.90;99.90;;;;;;5079056;28;20038;-67
2023/07/14 00:19:17;;;;;;;4.45;3.10;;;17.00;99.90;;;;;;5077622;28;20036;-64
2023/07/14 00:21:46;;;;;;;7.25;3.70;;;16.90;99.90;;;;;;5073509;28;20044;-64
2023/07/14 00:24:15;;;;;;;11.95;3.03;;;17.00;99.90;;;;;;5074313;28;20048;-67
2023/07/14 00:26:45;;;;;;;4.78;2.88;;;16.90;99.90;;;;;;5073597;28;20045;-63
2023/07/14 00:29:26;;;;;;;3.33;2.60;;;16.90;99.90;;;;;;5058657;28;20048;-64
2023/07/14 00:31:55;;;;;;;2.88;2.58;;;16.90;99.90;;;;;;5070455;28;20098;-63
2023/07/14 00:34:22;;;;;;;3.30;2.55;;;16.90;99.90;;;;;;5059490;28;20398;-63
2023/07/14 00:36:49;;;;;;;8.43;3.58;;;16.90;99.90;;;;;;5075120;28;20033;-65
2023/07/14 00:39:16;;;;;;;5.03;2.65;;;16.90;99.90;;;;;;5077594;28;20059;-63
2023/07/14 00:41:43;;;;;;;4.07;2.42;;;16.90;99.90;;;;;;5073127;28;20037;-64
2023/07/14 00:44:14;;;;;;;5.15;2.80;;;16.90;99.90;;;;;;5061370;28;20122;-66
2023/07/14 00:46:42;;;;;;;2.83;2.53;;;16.90;99.90;;;;;;5076013;28;20489;-67
2023/07/14 00:49:35;;;;;;;3.92;2.88;;;16.90;99.90;;;;;;5071466;28;20545;-65
2023/07/14 00:52:16;;;;;;;5.82;3.03;;;16.90;99.90;;;;;;5076658;28;20494;-64
2023/07/14 00:54:49;;;;;;;4.60;2.65;;;16.80;99.90;;;;;;5079353;28;20032;-66
2023/07/14 00:57:17;;;;;;;3.88;2.40;;;16.80;99.90;;;;;;5079129;28;20056;-64
2023/07/14 00:59:44;;;;;;;3.35;3.05;;;16.80;99.90;;;;;;5080389;28;20068;-64
2023/07/14 01:02:11;;;;;;;7.20;3.92;;;16.70;99.90;;;;;;5076291;28;20890;-63
2023/07/14 01:04:41;;;;;;;3.08;2.58;;;16.70;99.90;;;;;;5067721;28;20066;-64
2023/07/14 01:07:10;;;;;;;5.90;3.13;;;16.70;99.90;;;;;;5079428;28;20105;-67
2023/07/14 01:09:39;;;;;;;4.50;3.20;;;16.70;99.90;;;;;;5079484;28;20062;-63
2023/07/14 01:12:07;;;;;;;4.78;2.60;;;16.70;99.90;;;;;;5071783;28;20448;-63
2023/07/14 01:14:40;;;;;;;6.38;2.35;;;16.60;99.90;;;;;;5061224;28;20071;-65
2023/07/14 01:17:07;;;;;;;4.40;3.40;;;16.60;99.90;;;;;;5053189;28;20330;-64
2023/07/14 01:19:43;;;;;;;5.25;3.33;;;16.50;99.90;;;;;;5057049;28;20048;-64
2023/07/14 01:22:21;;;;;;;3.75;2.42;;;16.60;99.90;;;;;;5074447;28;20793;-63
2023/07/14 01:25:00;;;;;;;3.67;2.40;;;16.60;99.90;;;;;;5074080;28;20050;-66
2023/07/14 01:27:27;;;;;;;6.68;2.78;;;16.50;99.90;;;;;;5056117;28;20192;-64
2023/07/14 01:29:54;;;;;;;4.40;3.65;;;16.50;99.90;;;;;;5077756;28;20044;-65
2023/07/14 01:32:24;;;;;;;5.03;3.40;;;16.50;99.90;;;;;;5061264;28;20047;-66
2023/07/14 01:34:52;;;;;;;3.13;2.85;;;16.50;99.90;;;;;;5052496;28;20147;-63
2023/07/14 01:37:20;;;;;;;6.25;3.95;;;16.50;99.90;;;;;;5076798;28;20048;-65
2023/07/14 01:39:51;;;;;;;3.53;2.95;;;16.50;99.90;;;;;;5061688;28;20147;-65
2023/07/14 01:42:19;;;;;;;6.30;2.83;;;16.50;99.90;;;;;;5074190;28;20041;-63
2023/07/14 01:44:48;;;;;;;6.00;2.20;;;16.50;99.90;;;;;;5078647;28;20492;-65
2023/07/14 01:47:16;;;;;;;11.48;2.30;;;16.50;99.90;;;;;;5075169;28;20719;-66
2023/07/14 01:49:49;;;;;;;4.57;2.35;;;16.60;99.90;;;;;;5076416;28;20067;-65
2023/07/14 01:52:22;;;;;;;3.17;2.78;;;16.60;99.90;;;;;;5076330;28;20555;-63
2023/07/14 01:54:55;;;;;;;3.22;2.33;;;16.60;99.90;;;;;;5075615;28;20048;-64
2023/07/14 01:57:26;;;;;;;3.38;2.45;;;16.50;99.90;;;;;;5076338;28;20053;-64
2023/07/14 02:00:09;;;;;;;3.38;2.60;;;16.60;99.90;;;;;;5073100;28;20357;-66
2023/07/14 02:02:44;;;;;;;3.22;2.38;;;16.60;99.90;;;;;;5074446;28;20074;-65
2023/07/14 02:05:25;;;;;;;3.10;2.70;;;16.60;99.90;;;;;;5074760;28;20539;-64
2023/07/14 02:07:54;;;;;;;6.63;3.58;;;16.60;99.90;;;;;;5056783;28;20071;-64
2023/07/14 02:10:21;;;;;;;4.88;2.40;;;16.60;99.90;;;;;;5060902;28;20048;-65
2023/07/14 02:12:49;;;;;;;3.45;2.78;;;16.60;99.90;;;;;;5074851;28;20084;-64
2023/07/14 02:15:20;;;;;;;6.75;2.90;;;16.60;99.90;;;;;;5075578;28;20050;-64
2023/07/14 02:17:48;;;;;;;4.32;2.75;;;16.60;99.90;;;;;;5076036;28;20119;-64
2023/07/14 02:20:22;;;;;;;3.03;2.72;;;16.60;99.90;;;;;;5060442;28;20063;-64
2023/07/14 02:22:52;;;;;;;3.45;2.00;;;16.70;99.90;;;;;;5078927;28;20051;-65
2023/07/14 02:25:22;;;;;;;3.70;2.17;;;16.60;99.90;;;;;;5071212;28;20226;-66
2023/07/14 02:27:49;;;;;;;3.63;2.40;;;16.70;99.90;;;;;;5073633;28;20093;-67
2023/07/14 02:30:19;;;;;;;4.13;2.42;;;16.60;99.90;;;;;;5062589;28;20588;-64
2023/07/14 02:32:51;;;;;;;7.40;2.53;;;16.70;99.90;;;;;;5077459;28;20483;-65
2023/07/14 02:35:33;;;;;;;2.97;2.17;;;16.60;99.90;;;;;;5073981;28;20044;-64
2023/07/14 02:38:05;;;;;;;3.10;2.60;;;16.60;99.90;;;;;;5074603;28;20044;-64
2023/07/14 02:40:41;;;;;;;4.68;2.50;;;16.70;99.90;;;;;;5072707;28;20040;-64
2023/07/14 02:43:12;;;;;;;3.25;2.42;;;16.60;99.90;;;;;;5075929;28;20044;-64
2023/07/14 02:45:56;;;;;;;3.17;2.30;;;16.60;99.90;;;;;;5076984;28;20135;-65
2023/07/14 02:48:41;;;;;;;5.63;2.70;;;16.60;99.90;;;;;;5060873;28;20089;-63
2023/07/14 02:51:08;;;;;;;4.90;2.20;;;16.60;99.90;;;;;;5061760;28;20052;-64
2023/07/14 02:53:36;;;;;;;6.10;3.33;;;16.60;99.90;;;;;;5083361;28;20509;-64
2023/07/14 02:56:03;;;;;;;6.28;2.45;;;16.60;99.90;;;;;;5074612;28;20040;-64
2023/07/14 02:58:31;;;;;;;4.22;2.05;;;16.60;99.90;;;;;;5059826;28;20063;-66
2023/07/14 03:00:58;;;;;;;4.20;2.45;;;16.60;99.90;;;;;;5069370;28;20132;-66
2023/07/14 03:03:25;;;;;;;2.17;1.98;;;16.60;99.90;;;;;;5066897;28;20094;-65
2023/07/14 03:05:53;;;;;;;6.50;1.95;;;16.60;99.90;;;;;;5080521;28;20052;-65
2023/07/14 03:08:21;;;;;;;2.50;1.92;;;16.60;99.90;;;;;;5076436;28;20532;-64
2023/07/14 03:10:54;;;;;;;3.60;2.40;;;16.60;99.90;;;;;;5077978;28;20478;-64
2023/07/14 03:13:22;;;;;;;5.78;1.80;;;16.60;99.90;;;;;;5078231;28;20445;-64
2023/07/14 03:15:49;;;;;;;5.13;2.75;;;16.60;99.90;;;;;;5061800;28;20048;-64
2023/07/14 03:18:16;;;;;;;3.22;2.08;;;16.60;99.90;;;;;;5083158;28;20043;-64
2023/07/14 03:20:45;;;;;;;2.92;2.15;;;16.60;99.90;;;;;;5078792;28;20089;-65
2023/07/14 03:23:13;;;;;;;3.17;1.70;;;16.60;99.90;;;;;;5075073;28;20039;-64
2023/07/14 03:25:40;;;;;;;3.53;2.40;;;16.60;99.90;;;;;;5074981;28;20056;-64
2023/07/14 03:28:08;;;;;;;2.38;1.70;;;16.50;99.90;;;;;;5079876;28;20131;-65
2023/07/14 03:30:39;;;;;;;2.63;2.28;;;16.50;99.90;;;;;;5078656;28;20123;-64
2023/07/14 03:33:07;;;;;;;2.75;1.90;;;16.50;99.90;;;;;;5061159;28;20129;-65
2023/07/14 03:35:34;;;;;;;2.72;1.83;;;16.50;99.90;;;;;;5077480;28;20566;-64
2023/07/14 03:38:01;;;;;;;6.32;2.00;;;16.50;99.90;;;;;;5064027;28;20052;-63
2023/07/14 03:40:28;;;;;;;2.90;2.13;;;16.50;99.90;;;;;;5081038;28;20052;-64
2023/07/14 03:42:55;;;;;;;3.20;1.75;;;16.50;99.90;;;;;;5077718;28;20599;-66
2023/07/14 03:45:22;;;;;;;2.50;2.28;;;16.50;99.90;;;;;;5074743;28;20063;-64
2023/07/14 03:47:49;;;;;;;2.50;2.30;;;16.50;99.90;;;;;;5079355;28;20044;-64
2023/07/14 03:50:17;;;;;;;3.42;1.85;;;16.60;99.90;;;;;;5071381;28;20052;-65
2023/07/14 03:52:43;;;;;;;9.10;3.10;;;16.60;99.90;;;;;;5059191;28;20113;-65
2023/07/14 03:55:11;;;;;;;6.97;2.13;;;16.50;99.90;;;;;;5077077;28;20040;-64
2023/07/14 03:57:38;;;;;;;4.25;1.88;;;16.50;99.90;;;;;;5064870;28;20055;-67
2023/07/14 04:00:25;;;;;;;5.15;2.28;;;16.50;99.90;;;;;;5076756;28;20044;-65
2023/07/14 04:02:52;;;;;;;2.83;1.83;;;16.50;99.90;;;;;;5072048;28;20040;-66
2023/07/14 04:05:19;;;;;;;3.95;2.20;;;16.50;99.90;;;;;;5074598;28;20127;-65
2023/07/14 04:07:46;;;;;;;6.60;2.80;;;16.50;99.90;;;;;;5079255;28;20280;-63
2023/07/14 04:10:13;;;;;;;6.60;2.45;;;16.50;99.90;;;;;;5076118;28;20425;-64
2023/07/14 04:12:40;;;;;;;5.03;2.33;;;16.50;99.90;;;;;;5082813;28;20059;-65
2023/07/14 04:15:07;;;;;;;4.72;2.35;;;16.50;99.90;;;;;;5076750;28;20039;-64
2023/07/14 04:17:36;;;;;;;7.30;2.72;;;16.40;99.90;;;;;;5076814;28;20044;-67
2023/07/14 04:20:05;;;;;;;5.93;2.40;;;16.40;99.90;;;;;;5076913;28;20557;-64
2023/07/14 04:22:32;;;;;;;3.83;2.33;;;16.30;99.90;;;;;;5076529;28;20478;-64
2023/07/14 04:25:00;;;;;;;4.50;2.33;;;16.30;99.90;;;;;;5078969;28;20036;-64
2023/07/14 04:27:27;;;;;;;5.68;2.80;;;16.30;99.90;;;;;;5080106;28;20047;-67
2023/07/14 04:29:54;;;;;;;3.97;2.80;;;16.30;99.90;;;;;;5077000;28;20090;-64
2023/07/14 04:32:21;;;;;;;3.80;2.85;;;16.20;99.90;;;;;;5077730;28;20040;-64
2023/07/14 04:34:49;;;;;;;2.38;2.00;;;16.20;99.90;;;;;;5075855;28;20043;-64
2023/07/14 04:37:16;;;;;;;7.65;2.70;;;16.10;99.90;;;;;;5074676;28;20040;-65
2023/07/14 04:39:44;;;;;;;5.88;2.15;;;16.10;99.90;;;;;;5078521;28;20060;-63
2023/07/14 04:42:12;;;;;;;4.68;2.80;;;16.00;99.90;;;;;;5076545;28;20151;-64
2023/07/14 04:44:39;;;;;;;6.40;3.10;;;16.00;99.90;;;;;;5085243;28;20065;-65
2023/07/14 04:47:06;;;;;;;2.47;2.20;;;15.90;99.90;;;;;;5073353;28;20052;-64
2023/07/14 04:49:34;;;;;;;3.53;2.60;;;15.90;99.90;;;;;;5074633;28;20040;-64
2023/07/14 04:52:02;;;;;;;4.15;2.58;;;15.90;99.90;;;;;;5076407;28;20421;-66
2023/07/14 04:54:29;;;;;;;7.00;2.45;;;16.00;99.90;;;;;;5074676;28;20128;-65
2023/07/14 04:56:56;;;;;;;3.60;2.42;;;15.90;99.90;;;;;;5074507;28;20050;-64
2023/07/14 04:59:23;;;;;;;3.60;2.45;;;15.90;99.90;;;;;;5073360;28;20478;-64
2023/07/14 05:01:50;;;;;;;5.32;2.80;;;15.90;99.90;;;;;;5079915;28;20040;-64
2023/07/14 05:04:17;;;;;;;8.70;2.60;;;15.90;99.90;;;;;;5072859;28;20046;-65
2023/07/14 05:06:44;;;;;;;13.00;2.22;;;15.90;99.90;;;;;;5074242;28;20045;-64
2023/07/14 05:09:11;;;;;;;3.53;2.72;;;15.90;99.90;;;;;;5073111;28;20059;-64
2023/07/14 05:11:38;;;;;;;5.57;3.40;;;15.90;99.90;;;;;;5077395;28;20067;-63
2023/07/14 05:14:06;;;;;;;9.73;3.00;;;15.90;99.90;;;;;;5076751;28;20040;-64
2023/07/14 05:16:33;;;;;;;2.92;2.45;;;16.00;99.90;;;;;;5075043;28;20064;-64
2023/07/14 05:19:00;;;;;;;3.55;2.75;;;16.00;99.90;;;;;;5076036;28;20457;-63
2023/07/14 05:21:27;;;;;;;5.93;3.50;;;16.00;99.90;;;;;;5077584;28;20040;-66
2023/07/14 05:23:54;;;;;;;6.20;2.33;;;16.00;99.90;;;;;;5074127;28;20055;-64
2023/07/14 05:26:21;;;;;;;10.07;3.20;;;16.00;99.90;;;;;;5071114;28;20048;-64
2023/07/14 05:28:48;;;;;;;3.85;2.53;;;16.10;99.90;;;;;;5076301;28;20048;-64
2023/07/14 05:31:15;;;;;;;7.38;2.50;;;16.10;99.90;;;;;;5075135;28;20055;-64
2023/07/14 05:33:42;;;;;;;8.35;3.92;;;16.20;99.90;;;;;;5079564;28;20131;-64
2023/07/14 05:36:08;;;;;;;10.60;2.95;;;16.30;99.90;;;;;;5082004;28;20067;-64
2023/07/14 05:38:36;;;;;;;3.30;3.00;;;16.50;99.90;;;;;;5075370;28;20084;-64
2023/07/14 05:41:04;;;;;;;3.78;2.88;;;16.50;99.90;;;;;;5076090;28;20180;-65
2023/07/14 05:43:31;;;;;;;4.70;2.92;;;16.50;99.90;;;;;;5072635;28;20036;-67
2023/07/14 05:45:59;;;;;;;5.22;2.85;;;16.50;99.90;;;;;;5076011;28;20045;-63
2023/07/14 05:48:26;;;;;;;6.70;2.78;;;16.40;99.90;;;;;;5081790;28;20033;-64
2023/07/14 05:50:54;;;;;;;6.00;3.33;;;16.30;99.90;;;;;;5074057;28;20121;-64
2023/07/14 05:53:21;;;;;;;4.28;2.85;;;16.40;99.90;;;;;;5075237;28;20071;-65
2023/07/14 05:55:48;;;;;;;4.28;2.00;;;16.30;99.90;;;;;;5075954;28;20040;-63
2023/07/14 05:58:15;;;;;;;5.30;3.53;;;16.30;99.90;;;;;;5077079;28;20430;-64
2023/07/14 06:00:42;;;;;;;3.13;2.83;;;16.30;99.90;;;;;;5073865;28;20041;-64
2023/07/14 06:03:18;;;;;;;3.88;3.50;;;16.30;99.90;;;;;;5074926;28;20136;-65
2023/07/14 06:05:47;;;;;;;12.45;4.57;;;16.30;99.90;;;;;;5073935;28;20048;-63
2023/07/14 06:08:15;;;;;;;6.22;3.20;;;16.40;99.90;;;;;;5079457;28;20068;-64
2023/07/14 06:10:42;;;;;;;6.57;3.30;;;16.40;99.90;;;;;;5079480;28;20048;-63
2023/07/14 06:13:10;;;;;;;6.40;3.22;;;16.50;99.90;;;;;;5078719;28;20067;-63
2023/07/14 06:15:37;;;;;;;6.28;3.00;;;16.50;99.90;;;;;;5078112;28;20802;-64
2023/07/14 06:18:04;;;;;;;6.60;3.00;;;16.50;99.90;;;;;;5079840;28;20063;-64
2023/07/14 06:20:31;;;;;;;8.23;2.72;;;16.50;99.90;;;;;;5077272;28;20094;-64
2023/07/14 06:22:58;;;;;;;4.13;2.97;;;16.60;99.90;;;;;;5074249;28;20044;-64
2023/07/14 06:25:25;;;;;;;6.13;2.72;;;16.60;99.90;;;;;;5081141;28;20036;-66
2023/07/14 06:27:52;;;;;;;4.32;3.42;;;16.60;99.90;;;;;;5082118;28;20102;-64
2023/07/14 06:30:19;;;;;;;6.90;3.63;;;16.60;99.90;;;;;;5084971;28;20044;-65
2023/07/14 06:32:46;;;;;;;5.68;2.90;;;16.70;99.90;;;;;;5081728;28;20093;-65
2023/07/14 06:35:14;;;;;;;10.25;2.90;;;16.80;99.90;;;;;;5080986;28;20095;-67
2023/07/14 06:37:41;;;;;;;6.53;3.83;;;16.80;99.90;;;;;;5082802;28;20497;-64
2023/07/14 06:40:09;;;;;;;4.35;2.78;;;16.70;99.90;;;;;;5081400;28;20101;-63
2023/07/14 06:42:36;;;;;;;2.92;2.47;;;16.70;99.90;;;;;;5080272;28;20039;-66
2023/07/14 06:45:04;;;;;;;3.17;2.30;;;16.60;99.90;;;;;;5082217;28;20557;-66
2023/07/14 06:47:35;;;;;;;3.58;2.42;;;16.70;99.90;;;;;;5082413;28;20491;-66
2023/07/14 06:50:03;;;;;;;3.80;3.40;;;16.70;99.90;;;;;;5080817;28;20760;-66
2023/07/14 06:52:31;;;;;;;3.17;2.33;;;16.70;99.90;;;;;;5082142;28;21586;-65
2023/07/14 06:54:58;;;;;;;4.55;2.78;;;16.70;99.90;;;;;;5078382;28;20094;-63
2023/07/14 06:57:24;;;;;;;3.35;2.30;;;16.70;99.90;;;;;;5082529;28;20097;-65
2023/07/14 06:59:52;;;;;;;5.90;3.22;;;16.80;99.90;;;;;;5082710;28;20044;-63
2023/07/14 07:02:19;;;;;;;4.07;2.70;;;16.80;99.90;;;;;;5082356;28;20056;-63
2023/07/14 07:04:46;;;;;;;7.93;3.22;;;16.90;99.90;;;;;;5075806;28;20062;-64
2023/07/14 07:07:13;;;;;;;5.82;3.63;;;17.00;99.90;;;;;;5079563;28;20112;-63
2023/07/14 07:09:40;;;;;;;4.28;2.33;;;17.00;99.90;;;;;;5078739;28;20056;-64
2023/07/14 07:12:09;;;;;;;6.13;2.08;;;17.00;99.90;;;;;;5084094;28;20039;-65
2023/07/14 07:14:36;;;;;;;3.58;2.35;;;17.00;99.90;;;;;;5076000;28;20105;-64
2023/07/14 07:17:03;;;;;;;6.72;2.42;;;17.00;99.90;;;;;;5078557;28;20101;-63
2023/07/14 07:19:32;;;;;;;6.35;2.63;;;17.00;99.90;;;;;;5080339;28;20068;-65
2023/07/14 07:21:59;;;;;;;4.80;2.78;;;17.00;99.90;;;;;;5081959;28;20064;-63
2023/07/14 07:24:26;;;;;;;10.57;3.13;;;17.00;99.90;;;;;;5078046;28;20124;-64
2023/07/14 07:26:52;;;;;;;3.70;2.38;;;17.10;99.90;;;;;;5080606;28;20047;-66
2023/07/14 07:29:19;;;;;;;10.40;3.08;;;17.10;99.90;;;;;;5074782;28;20131;-64
2023/07/14 07:31:47;;;;;;;4.47;2.25;;;17.20;99.90;;;;;;5080995;28;20048;-64
2023/07/14 07:34:18;;;;;;;5.95;3.50;;;17.30;99.90;;;;;;5079011;28;20036;-66
2023/07/14 07:36:45;;;;;;;6.97;3.25;;;17.30;99.90;;;;;;5077910;28;20114;-65
2023/07/14 07:39:11;;;;;;;2.65;1.92;;;17.30;99.90;;;;;;5074577;28;20105;-65
2023/07/14 07:41:39;;;;;;;3.28;2.03;;;17.40;99.90;;;;;;5078946;28;20052;-66
2023/07/14 07:44:10;;;;;;;7.13;3.92;;;17.30;99.90;;;;;;5076605;28;20120;-64
2023/07/14 07:46:37;;;;;;;7.97;3.17;;;17.30;99.90;;;;;;5075736;28;20714;-64
2023/07/14 07:49:04;;;;;;;5.75;1.85;;;17.40;99.90;;;;;;5079048;28;20048;-64
2023/07/14 07:51:31;;;;;;;4.25;2.13;;;17.30;99.90;;;;;;5077314;28;20555;-65
2023/07/14 07:53:58;;;;;;;8.10;2.30;;;17.40;99.90;;;;;;5082918;28;20037;-65
2023/07/14 07:56:25;;;;;;;4.32;2.45;;;17.50;99.90;;;;;;5076764;28;20132;-64
2023/07/14 07:58:52;;;;;;;3.55;2.58;;;17.50;99.90;;;;;;5075418;28;20048;-66
2023/07/14 08:01:24;;;;;;;9.35;2.90;;;17.60;99.90;;;;;;5081162;28;20043;-67
2023/07/14 08:03:51;;;;;;;3.33;1.92;;;17.60;99.90;;;;;;5072668;28;20127;-65
2023/07/14 08:06:19;;;;;;;5.85;2.58;;;17.60;99.90;;;;;;5076931;28;20036;-67
2023/07/14 08:08:46;;;;;;;3.28;2.00;;;17.70;99.90;;;;;;5077647;28;20056;-65
2023/07/14 08:11:14;;;;;;;4.53;2.55;;;17.80;99.90;;;;;;5078763;28;20548;-67
2023/07/14 08:13:41;;;;;;;2.95;2.05;;;17.80;99.90;;;;;;5076688;28;20056;-65
2023/07/14 08:16:08;;;;;;;6.03;4.20;;;17.80;99.90;;;;;;5074523;28;20420;-64
2023/07/14 08:18:35;;;;;;;7.25;2.33;;;17.80;99.90;;;;;;5076194;28;20040;-64
2023/07/14 08:21:02;;;;;;;6.75;3.22;;;18.00;99.90;;;;;;5073786;28;20056;-67
2023/07/14 08:23:29;;;;;;;4.40;1.95;;;18.20;99.90;;;;;;5080304;28;20063;-64
2023/07/14 08:25:58;;;;;;;2.75;2.55;;;18.30;99.90;;;;;;5074839;28;20458;-64
2023/07/14 08:28:25;;;;;;;5.63;2.42;;;18.40;99.90;;;;;;5080713;28;20044;-64
2023/07/14 08:30:55;;;;;;;6.68;2.50;;;18.50;99.90;;;;;;5074619;28;20054;-64
2023/07/14 08:33:24;;;;;;;4.10;2.60;;;18.30;99.90;;;;;;5077176;28;20102;-65
2023/07/14 08:35:52;;;;;;;6.28;2.72;;;18.30;99.90;;;;;;5074036;28;20131;-65
2023/07/14 08:38:20;;;;;;;3.50;2.60;;;18.40;99.90;;;;;;5073456;28;20036;-63
2023/07/14 08:41:09;;;;;;;6.00;2.53;;;18.40;99.90;;;;;;5075686;28;20128;-66
2023/07/14 08:44:17;;;;;;;5.55;2.30;;;18.40;99.90;;;;;;5076625;28;20050;-67
2023/07/14 08:47:06;;;;;;;6.15;3.05;;;18.20;99.90;;;;;;5079423;28;20051;-64
2023/07/14 08:49:55;;;;;;;3.43;2.60;;;18.20;99.90;;;;;;5078059;28;20490;-64
2023/07/14 08:52:33;;;;;;;13.32;3.03;;;18.40;99.90;;;;;;5076571;28;20361;-64
2023/07/14 08:55:21;;;;;;;7.05;2.72;;;18.30;99.90;;;;;;5074622;28;20059;-65
2023/07/14 08:58:01;;;;;;;7.07;2.65;;;18.20;99.90;;;;;;5076363;28;20471;-65
2023/07/14 09:00:38;;;;;;;3.08;2.75;;;18.10;99.90;;;;;;5073836;28;20047;-64
2023/07/14 09:03:37;;;;;;;3.35;2.60;;;18.00;99.90;;;;;;5072615;28;20302;-63
2023/07/14 09:06:18;;;;;;;3.97;3.20;;;17.90;99.90;;;;;;5079696;28;20051;-64
2023/07/14 09:08:45;;;;;;;4.28;2.88;;;17.80;99.90;;;;;;5079149;28;20057;-65
2023/07/14 09:11:50;;;;;;;7.10;3.15;;;17.70;99.90;;;;;;5073996;28;20153;-64
2023/07/14 09:14:48;;;;;;;3.50;3.20;;;17.60;99.90;;;;;;5068397;28;20056;-65
2023/07/14 09:17:34;;;;;;;5.95;3.38;;;17.70;99.90;;;;;;5077518;28;20048;-64
2023/07/14 09:20:19;;;;;;;7.53;3.03;;;17.90;99.90;;;;;;5074150;28;20504;-65
2023/07/14 09:22:54;;;;;;;3.90;3.60;;;17.80;99.90;;;;;;5072512;28;20375;-64
2023/07/14 09:25:37;;;;;;;5.75;3.20;;;17.80;99.90;;;;;;5072155;28;20049;-64
2023/07/14 09:28:13;;;;;;;4.10;2.65;;;17.90;99.90;;;;;;5073016;28;20047;-66
2023/07/14 09:30:41;;;;;;;4.38;2.63;;;17.80;99.90;;;;;;5076924;28;20047;-68
2023/07/14 09:33:14;;;;;;;7.68;3.45;;;17.80;99.90;;;;;;5070029;28;20036;-65
2023/07/14 09:35:45;;;;;;;3.50;2.78;;;17.90;99.90;;;;;;5071963;28;20139;-64
2023/07/14 09:38:27;;;;;;;3.53;2.72;;;18.00;99.90;;;;;;5074816;28;20054;-67
2023/07/14 09:40:58;;;;;;;4.13;2.97;;;18.10;99.90;;;;;;5080218;28;20607;-65
2023/07/14 09:43:25;;;;;;;4.82;3.03;;;18.40;99.90;;;;;;5076728;28;20098;-66
2023/07/14 09:45:56;;;;;;;6.70;3.55;;;18.60;99.90;;;;;;5073232;28;20395;-65
2023/07/14 09:48:26;;;;;;;3.70;2.70;;;18.80;99.90;;;;;;5077911;28;20043;-64
2023/07/14 09:51:00;;;;;;;4.57;2.97;;;18.90;99.90;;;;;;5073213;28;20111;-64
2023/07/14 09:53:28;;;;;;;3.28;2.42;;;18.90;99.90;;;;;;5076556;28;20044;-64
2023/07/14 09:56:05;;;;;;;3.75;2.63;;;19.10;99.90;;;;;;5076737;28;20040;-64
2023/07/14 09:58:33;;;;;;;5.43;4.20;;;19.20;99.90;;;;;;5077449;28;20047;-63
2023/07/14 10:01:05;;;;;;;4.45;2.33;;;19.20;99.90;;;;;;5073608;28;20097;-64
2023/07/14 10:03:47;;;;;;;4.00;1.95;;;19.20;99.90;;;;;;5077382;28;20039;-65
2023/07/14 10:06:28;;;;;;;5.03;2.47;;;19.30;99.90;;;;;;5075143;28;20044;-68
2023/07/14 10:09:10;;;;;;;4.68;3.35;;;19.60;99.90;;;;;;5079436;28;20051;-64
2023/07/14 10:11:46;;;;;;;3.38;2.33;;;19.70;99.90;;;;;;5073515;28;20047;-64
2023/07/14 10:14:21;;;;;;;3.08;2.38;;;19.70;99.90;;;;;;5070965;28;20576;-68
2023/07/14 10:16:48;;;;;;;7.70;2.80;;;19.60;99.90;;;;;;5076192;28;20036;-65
2023/07/14 10:19:21;;;;;;;4.13;2.40;;;19.70;99.90;;;;;;5073728;28;21329;-68
2023/07/14 10:22:04;;;;;;;4.60;2.20;;;19.60;99.90;;;;;;5072876;28;20052;-65
2023/07/14 10:24:31;;;;;;;4.75;3.60;;;19.60;99.90;;;;;;5071696;28;20086;-66
2023/07/14 10:27:01;;;;;;;4.57;3.20;;;19.70;99.90;;;;;;5072472;28;20433;-65
2023/07/14 10:29:44;;;;;;;6.03;2.50;;;19.90;99.90;;;;;;5080974;28;20036;-65
2023/07/14 10:32:24;;;;;;;4.38;1.90;;;19.90;99.90;;;;;;5069393;28;20047;-65
2023/07/14 10:35:05;;;;;;;6.05;2.97;;;19.90;99.90;;;;;;5075408;28;20052;-64
2023/07/14 10:37:39;;;;;;;5.38;2.42;;;20.00;99.90;;;;;;5077683;28;20603;-65
2023/07/14 10:40:14;;;;;;;4.95;2.25;;;20.10;99.90;;;;;;5076709;28;20045;-66
2023/07/14 10:43:07;;;;;;;3.35;2.53;;;20.10;99.90;;;;;;5071622;28;20074;-65
2023/07/14 10:45:38;;;;;;;2.80;2.55;;;20.20;99.90;;;;;;5077023;28;20058;-66
2023/07/14 10:48:17;;;;;;;3.90;2.35;;;20.20;99.90;;;;;;5076164;28;20072;-65
2023/07/14 10:50:56;;;;;;;2.60;1.95;;;20.30;99.90;;;;;;5079046;28;20044;-68
2023/07/14 10:53:34;;;;;;;5.13;2.60;;;20.40;99.90;;;;;;5076841;28;20048;-64
2023/07/14 10:56:11;;;;;;;4.15;2.05;;;20.60;99.90;;;;;;5078004;28;20048;-68
2023/07/14 10:58:46;;;;;;;6.82;3.47;;;20.60;99.90;;;;;;5075713;28;20052;-65
2023/07/14 11:01:38;;;;;;;4.07;2.67;;;20.60;99.90;;;;;;5073699;28;20094;-65
2023/07/14 11:04:15;;;;;;;6.03;2.35;;;20.80;99.90;;;;;;5073233;28;20045;-65
2023/07/14 11:06:46;;;;;;;2.88;2.10;;;20.90;99.90;;;;;;5076341;28;20036;-64
2023/07/14 11:09:14;;;;;;;6.93;2.67;;;21.00;99.90;;;;;;5074230;28;20056;-65
2023/07/14 11:11:48;;;;;;;3.17;2.33;;;20.90;99.90;;;;;;5076616;28;20071;-65
2023/07/14 11:14:24;;;;;;;4.25;2.40;;;21.00;99.90;;;;;;5076760;28;20048;-65
2023/07/14 11:17:14;;;;;;;6.45;2.15;;;21.00;99.90;;;;;;5081535;28;20051;-64
2023/07/14 11:20:15;;;;;;;5.38;2.75;;;21.20;99.90;;;;;;5081726;28;20522;-66
2023/07/14 11:22:57;;;;;;;3.10;1.75;;;21.30;99.90;;;;;;5073993;28;20048;-65
2023/07/14 11:26:17;;;;;;;3.75;1.80;;;21.40;99.90;;;;;;5079286;28;20036;-65
2023/07/14 11:29:14;;;;;;;3.08;1.70;;;21.30;99.90;;;;;;5023456;28;20474;-65
2023/07/14 11:31:49;;;;;;;3.35;2.22;;;21.30;99.90;;;;;;5076974;28;20863;-64
2023/07/14 11:34:28;;;;;;;4.20;2.65;;;21.30;99.90;;;;;;5079632;28;20097;-66
2023/07/14 11:37:01;;;;;;;3.40;1.80;;;21.40;99.90;;;;;;5075025;28;20474;-63
2023/07/14 11:39:57;;;;;;;2.58;1.55;;;21.50;99.90;;;;;;5078466;28;20137;-67
2023/07/14 11:42:33;;;;;;;3.50;1.75;;;21.70;99.90;;;;;;5075202;28;20040;-65
2023/07/14 11:45:11;;;;;;;4.65;2.03;;;21.70;99.90;;;;;;5078635;28;20090;-64
2023/07/14 11:47:41;;;;;;;2.63;1.40;;;21.70;99.90;;;;;;5073868;28;20037;-65
2023/07/14 11:50:17;;;;;;;2.15;1.50;;;21.90;99.90;;;;;;5079630;28;20040;-65
2023/07/14 11:53:06;;;;;;;3.58;2.13;;;21.90;99.90;;;;;;5082968;28;20686;-66
2023/07/14 11:55:38;;;;;;;1.98;1.20;;;22.00;99.90;;;;;;5083301;28;20047;-65
2023/07/14 11:58:10;;;;;;;3.20;1.67;;;21.90;99.90;;;;;;5077328;28;20082;-65
2023/07/14 12:00:52;;;;;;;3.00;2.13;;;21.90;99.90;;;;;;5075698;28;20045;-64
2023/07/14 12:03:37;;;;;;;1.83;1.45;;;21.90;99.90;;;;;;5078452;28;20452;-66
2023/07/14 12:06:20;;;;;;;2.60;1.40;;;21.90;99.90;;;;;;5079793;28;20048;-65
2023/07/14 12:09:05;;;;;;;3.03;1.48;;;21.90;99.90;;;;;;5077791;28;20542;-66
2023/07/14 12:11:38;;;;;;;4.22;1.77;;;22.10;99.90;;;;;;5075069;28;20407;-66
2023/07/14 12:14:48;;;;;;;4.38;2.05;;;22.10;99.90;;;;;;5075567;28;20484;-66
2023/07/14 12:17:37;;;;;;;3.20;1.75;;;22.00;99.90;;;;;;5077413;28;20063;-65
2023/07/14 12:20:13;;;;;;;3.20;1.30;;;21.90;99.90;;;;;;5072857;28;20051;-68
2023/07/14 12:22:48;;;;;;;2.75;2.17;;;22.00;99.90;;;;;;5077480;28;20046;-64
2023/07/14 12:25:22;;;;;;;2.20;1.50;;;22.10;99.90;;;;;;5080940;28;20043;-65
2023/07/14 12:27:54;;;;;;;3.75;1.50;;;22.20;99.90;;;;;;5072950;28;20051;-64
2023/07/14 12:30:29;;;;;;;1.80;1.63;;;22.20;99.90;;;;;;5081067;28;20032;-65
2023/07/14 12:33:04;;;;;;;1.75;1.35;;;22.30;99.90;;;;;;5075116;28;20122;-64
2023/07/14 12:35:32;;;;;;;1.75;1.08;;;22.40;99.90;;;;;;5075262;28;20504;-68
2023/07/14 12:38:21;;;;;;;1.55;1.45;;;22.40;99.90;;;;;;5075151;28;20072;-66
2023/07/14 12:40:51;;;;;;;1.88;1.27;;;22.60;99.80;;;;;;5083745;28;20040;-67
2023/07/14 12:43:32;;;;;;;6.00;2.10;;;22.90;99.90;;;;;;5071090;28;20093;-65
2023/07/14 12:46:02;;;;;;;1.85;1.75;;;23.00;99.50;;;;;;5079593;28;20120;-64
2023/07/14 12:48:32;;;;;;;2.92;1.25;;;22.90;99.30;;;;;;5074945;28;20078;-67
2023/07/14 12:51:16;;;;;;;2.10;1.42;;;22.80;99.80;;;;;;5080510;28;20512;-65
2023/07/14 12:53:49;;;;;;;1.15;1.05;;;22.70;99.70;;;;;;5071869;28;20122;-67
2023/07/14 12:56:16;;;;;;;3.13;1.75;;;22.70;99.60;;;;;;5074363;28;20068;-65
2023/07/14 12:58:43;;;;;;;3.65;1.73;;;22.90;99.50;;;;;;5080329;28;20054;-66
2023/07/14 13:01:10;;;;;;;2.88;1.80;;;23.00;98.70;;;;;;5080696;28;20098;-67
2023/07/14 13:03:40;;;;;;;1.42;1.23;;;23.10;99.30;;;;;;5078815;28;20051;-64
2023/07/14 13:06:22;;;;;;;4.80;1.42;;;23.20;98.70;;;;;;5076219;28;20067;-64
2023/07/14 13:08:51;;;;;;;2.38;1.10;;;23.00;99.00;;;;;;5079027;28;20144;-65
2023/07/14 13:11:21;;;;;;;2.22;1.15;;;23.00;98.20;;;;;;5074619;28;20044;-64